Time;durP1;ratioP1;P1;durP2;ratioP2;P2;SDS_P1;SDS_P2;PMS_P1;PMS_P2;Temp;Humidity;BMP_temperature;BMP_pressure;BME280_temperature;BME280_humidity;BME280_pressure;Samples;Min_cycle;Max_cycle;Signal;HPM_P1;HPM_P2
2022/03/27 03:01:49;;;;;;;5.03;4.07;;;17.40;47.30;;;;;;5294034;22;45324;-56
2022/03/27 03:04:15;;;;;;;8.65;5.00;;;17.40;47.40;;;;;;4989732;28;45172;-56
2022/03/27 03:06:44;;;;;;;6.00;4.82;;;17.30;47.30;;;;;;4991296;28;44889;-54
2022/03/27 03:09:10;;;;;;;6.80;4.60;;;17.40;47.30;;;;;;4985129;28;45900;-54
2022/03/27 03:11:36;;;;;;;7.78;4.72;;;17.40;47.30;;;;;;4982485;28;45525;-58
2022/03/27 03:14:02;;;;;;;6.07;4.45;;;17.30;47.30;;;;;;4975631;28;45499;-55
2022/03/27 03:16:27;;;;;;;7.03;4.45;;;17.30;47.30;;;;;;4976282;28;45441;-55
2022/03/27 03:18:53;;;;;;;5.20;4.53;;;17.30;47.30;;;;;;4972385;28;45566;-55
2022/03/27 03:21:18;;;;;;;6.43;4.50;;;17.30;47.30;;;;;;4975586;28;45114;-56
2022/03/27 03:23:44;;;;;;;5.93;4.63;;;17.30;47.30;;;;;;4977629;28;45098;-55
2022/03/27 03:26:10;;;;;;;6.15;4.40;;;17.30;47.30;;;;;;4991364;28;45294;-51
2022/03/27 03:28:36;;;;;;;5.28;4.28;;;17.30;47.30;;;;;;4975373;28;45067;-55
2022/03/27 03:31:01;;;;;;;5.93;4.60;;;17.30;47.30;;;;;;4971887;28;45442;-56
2022/03/27 03:33:28;;;;;;;7.43;5.32;;;17.30;47.30;;;;;;4975611;28;45275;-55
2022/03/27 03:35:54;;;;;;;8.77;5.00;;;17.30;47.30;;;;;;4975108;28;45154;-55
2022/03/27 03:38:19;;;;;;;8.02;4.88;;;17.30;47.30;;;;;;4974962;28;46309;-56
2022/03/27 03:40:45;;;;;;;5.63;4.22;;;17.30;47.30;;;;;;4972375;28;45095;-56
2022/03/27 03:43:11;;;;;;;4.97;4.03;;;17.30;47.30;;;;;;4991134;28;45560;-57
2022/03/27 03:45:37;;;;;;;5.35;4.63;;;17.30;47.30;;;;;;4975255;28;45572;-55
2022/03/27 03:48:04;;;;;;;5.80;4.47;;;17.30;47.30;;;;;;4974168;28;46097;-54
2022/03/27 03:50:30;;;;;;;5.50;4.72;;;17.30;47.30;;;;;;4973612;28;45048;-54
2022/03/27 03:52:56;;;;;;;6.47;4.53;;;17.30;47.30;;;;;;4975652;28;44815;-56
2022/03/27 03:55:21;;;;;;;6.30;4.70;;;17.20;47.30;;;;;;4975662;28;45124;-56
2022/03/27 03:57:47;;;;;;;5.97;4.70;;;17.30;47.30;;;;;;4974599;28;46064;-55
2022/03/27 04:00:13;;;;;;;6.43;4.93;;;17.20;47.40;;;;;;4973401;28;44934;-57
2022/03/27 04:02:38;;;;;;;5.28;4.30;;;17.20;47.30;;;;;;4973227;28;45566;-56
2022/03/27 04:05:05;;;;;;;6.63;5.18;;;17.20;47.30;;;;;;4974914;28;45384;-55
2022/03/27 04:07:31;;;;;;;8.30;4.72;;;17.20;47.30;;;;;;4973955;28;46066;-57
2022/03/27 04:09:57;;;;;;;6.40;4.80;;;17.20;47.30;;;;;;4974161;28;45847;-55
2022/03/27 04:12:22;;;;;;;7.70;4.63;;;17.20;47.30;;;;;;4974120;28;45379;-56
2022/03/27 04:14:48;;;;;;;6.53;4.88;;;17.20;47.30;;;;;;4975190;28;45334;-52
2022/03/27 04:17:13;;;;;;;6.80;4.90;;;17.20;47.30;;;;;;4971788;28;47008;-55
2022/03/27 04:19:40;;;;;;;7.65;5.03;;;17.20;47.30;;;;;;4972788;28;45297;-56
2022/03/27 04:22:07;;;;;;;8.88;5.10;;;17.20;47.40;;;;;;4972090;28;44625;-56
2022/03/27 04:24:32;;;;;;;5.43;4.80;;;17.30;47.40;;;;;;4974496;28;44676;-55
2022/03/27 04:26:58;;;;;;;5.82;4.45;;;17.20;47.30;;;;;;4964170;28;47028;-56
2022/03/27 04:29:24;;;;;;;6.45;4.53;;;17.20;47.30;;;;;;4960059;28;44955;-54
2022/03/27 04:31:51;;;;;;;5.35;4.30;;;17.20;47.30;;;;;;4979656;28;45287;-53
2022/03/27 04:34:16;;;;;;;6.63;4.78;;;17.20;47.30;;;;;;4981417;28;44803;-57
2022/03/27 04:36:42;;;;;;;5.97;4.47;;;17.20;47.30;;;;;;4981977;28;45983;-50
2022/03/27 04:39:08;;;;;;;6.25;4.65;;;17.20;47.30;;;;;;4982285;28;45174;-55
2022/03/27 04:41:33;;;;;;;7.85;4.78;;;17.20;47.30;;;;;;4978092;28;45603;-58
2022/03/27 04:43:59;;;;;;;6.13;4.60;;;17.20;47.30;;;;;;4980723;28;45415;-53
2022/03/27 04:46:24;;;;;;;5.68;4.40;;;17.20;47.30;;;;;;4981809;28;46062;-52
2022/03/27 04:48:50;;;;;;;6.45;4.45;;;17.20;47.30;;;;;;4981345;28;45213;-57
2022/03/27 04:51:16;;;;;;;5.53;4.72;;;17.10;47.20;;;;;;4980962;28;45371;-53
2022/03/27 04:53:42;;;;;;;8.98;5.38;;;17.10;47.30;;;;;;4982267;28;45205;-50
2022/03/27 04:56:07;;;;;;;6.45;4.70;;;17.10;47.30;;;;;;4981154;28;45877;-53
2022/03/27 04:58:33;;;;;;;7.03;4.43;;;17.10;47.30;;;;;;4987087;28;46135;-58
2022/03/27 05:00:59;;;;;;;6.88;5.07;;;17.10;47.30;;;;;;4981043;28;44885;-53
2022/03/27 05:03:24;;;;;;;6.72;4.82;;;17.10;47.30;;;;;;4979716;28;45440;-54
2022/03/27 05:05:50;;;;;;;5.82;4.32;;;17.10;47.30;;;;;;4981436;28;46983;-54
2022/03/27 05:08:15;;;;;;;6.47;4.80;;;17.10;47.30;;;;;;4982056;28;45201;-54
2022/03/27 05:10:41;;;;;;;6.80;5.25;;;17.10;47.30;;;;;;4967900;28;46231;-53
2022/03/27 05:13:07;;;;;;;7.65;5.22;;;17.10;47.30;;;;;;4967298;28;45376;-56
2022/03/27 05:15:33;;;;;;;5.57;4.38;;;17.10;47.40;;;;;;4972514;28;46453;-58
2022/03/27 05:17:59;;;;;;;6.68;4.80;;;17.10;47.50;;;;;;4971020;28;45703;-53
2022/03/27 05:20:25;;;;;;;7.40;4.95;;;17.10;47.40;;;;;;4974659;28;45473;-52
2022/03/27 05:22:51;;;;;;;7.53;4.47;;;17.10;47.40;;;;;;4973203;28;45088;-55
2022/03/27 05:25:17;;;;;;;7.55;4.97;;;17.10;47.40;;;;;;4973410;28;45989;-52
2022/03/27 05:27:47;;;;;;;6.90;5.03;;;17.10;47.30;;;;;;4972881;28;46458;-54
2022/03/27 05:30:14;;;;;;;7.30;4.55;;;17.10;47.40;;;;;;4974273;28;45350;-54
2022/03/27 05:32:40;;;;;;;6.85;5.10;;;17.10;47.30;;;;;;4971800;28;45735;-57
2022/03/27 05:35:07;;;;;;;5.68;4.55;;;17.10;47.40;;;;;;4973200;28;45940;-53
2022/03/27 05:37:39;;;;;;;7.40;5.10;;;17.10;47.30;;;;;;4973574;28;45276;-58
2022/03/27 05:40:06;;;;;;;6.43;4.72;;;17.10;47.30;;;;;;4973737;28;45293;-59
2022/03/27 05:42:32;;;;;;;6.65;4.30;;;17.10;47.40;;;;;;4973629;28;45464;-58
2022/03/27 05:44:59;;;;;;;8.52;4.68;;;17.10;47.20;;;;;;4973434;28;46193;-53
2022/03/27 05:47:25;;;;;;;7.05;4.43;;;17.10;47.20;;;;;;4974851;28;45293;-56
2022/03/27 05:49:51;;;;;;;7.93;4.63;;;17.10;47.30;;;;;;4974073;28;45261;-58
2022/03/27 05:52:17;;;;;;;7.68;4.55;;;17.10;47.30;;;;;;4973991;28;44723;-54
2022/03/27 05:54:43;;;;;;;6.47;4.18;;;17.10;47.20;;;;;;4973819;28;46536;-55
2022/03/27 05:57:08;;;;;;;7.88;4.75;;;17.10;47.10;;;;;;4974781;28;45395;-56
2022/03/27 05:59:34;;;;;;;7.35;5.00;;;17.20;47.00;;;;;;4955007;28;45184;-57
2022/03/27 06:02:00;;;;;;;5.68;4.43;;;17.40;46.60;;;;;;4971204;28;45387;-54
2022/03/27 06:04:26;;;;;;;6.90;4.78;;;17.60;46.20;;;;;;4972765;28;46480;-56
2022/03/27 06:06:52;;;;;;;5.47;4.55;;;18.00;45.60;;;;;;4972039;28;45158;-55
2022/03/27 06:09:17;;;;;;;5.97;4.70;;;18.30;44.80;;;;;;4974340;28;45570;-56
2022/03/27 06:11:43;;;;;;;6.75;4.75;;;18.60;44.20;;;;;;4988320;28;45263;-56
2022/03/27 06:14:08;;;;;;;6.90;4.70;;;18.80;43.70;;;;;;4989283;28;46031;-55
2022/03/27 06:16:34;;;;;;;6.93;4.82;;;19.00;43.30;;;;;;4973678;28;44839;-56
2022/03/27 06:18:59;;;;;;;5.70;4.75;;;19.10;42.90;;;;;;4975275;28;45229;-57
2022/03/27 06:21:25;;;;;;;6.68;4.70;;;18.90;43.20;;;;;;4973577;28;45639;-52
2022/03/27 06:23:50;;;;;;;8.48;5.13;;;18.30;44.50;;;;;;4971623;28;45935;-53
2022/03/27 06:26:16;;;;;;;6.97;4.95;;;17.90;45.30;;;;;;4972627;28;45644;-57
2022/03/27 06:28:42;;;;;;;6.35;4.75;;;17.70;45.80;;;;;;4971899;28;45378;-52
2022/03/27 06:31:07;;;;;;;5.50;4.38;;;17.60;46.20;;;;;;4974013;28;46232;-57
2022/03/27 06:33:33;;;;;;;5.18;4.57;;;17.50;46.40;;;;;;4973044;28;47122;-55
2022/03/27 06:36:01;;;;;;;7.85;4.22;;;17.40;46.60;;;;;;4970985;28;45348;-54
2022/03/27 06:38:28;;;;;;;5.65;4.35;;;17.40;46.60;;;;;;4972521;28;45261;-57
2022/03/27 06:40:55;;;;;;;6.32;4.70;;;17.40;46.70;;;;;;4988574;28;45064;-56
2022/03/27 06:43:22;;;;;;;6.30;4.28;;;17.40;46.80;;;;;;4973469;28;47169;-53
2022/03/27 06:45:49;;;;;;;7.30;4.75;;;17.40;46.80;;;;;;4973771;28;45667;-55
2022/03/27 06:48:14;;;;;;;6.85;4.60;;;17.40;46.80;;;;;;4971732;28;45365;-56
2022/03/27 06:50:40;;;;;;;5.35;4.28;;;17.40;46.80;;;;;;4973463;28;45269;-56
2022/03/27 06:53:05;;;;;;;6.90;4.18;;;17.40;46.80;;;;;;4971252;28;45381;-55
2022/03/27 06:55:32;;;;;;;5.90;4.22;;;17.40;46.80;;;;;;4969951;28;45357;-53
2022/03/27 06:57:57;;;;;;;5.45;4.18;;;17.40;46.80;;;;;;4973049;28;44835;-54
2022/03/27 07:03:09;;;;;;;6.35;4.75;;;17.40;46.80;;;;;;4969457;28;46081;-56
2022/03/27 07:05:37;;;;;;;5.93;4.70;;;17.40;46.80;;;;;;4971624;28;45457;-57
2022/03/27 07:08:06;;;;;;;5.63;4.03;;;17.40;46.70;;;;;;4973556;28;45317;-55
2022/03/27 07:10:32;;;;;;;5.82;4.15;;;17.50;46.70;;;;;;4972289;28;45740;-54
2022/03/27 07:12:57;;;;;;;5.15;4.50;;;17.50;46.70;;;;;;4971839;28;46665;-56
2022/03/27 07:15:24;;;;;;;5.75;4.32;;;17.50;46.70;;;;;;4969927;28;46144;-58
2022/03/27 07:17:51;;;;;;;7.28;4.30;;;17.60;46.70;;;;;;4969503;28;45239;-53
2022/03/27 07:20:24;;;;;;;5.47;4.47;;;17.60;46.70;;;;;;4972014;28;45139;-54
2022/03/27 07:22:50;;;;;;;6.93;5.07;;;17.60;46.70;;;;;;4972080;28;46060;-58
2022/03/27 07:25:15;;;;;;;5.95;4.55;;;17.50;46.60;;;;;;4972019;28;45914;-58
2022/03/27 07:27:41;;;;;;;7.80;4.82;;;17.50;46.70;;;;;;4970745;28;45246;-54
2022/03/27 07:30:08;;;;;;;5.97;4.25;;;17.50;46.70;;;;;;4971708;28;45454;-55
2022/03/27 07:32:34;;;;;;;6.05;4.40;;;17.50;46.80;;;;;;4967349;28;45213;-57
2022/03/27 07:34:59;;;;;;;5.78;4.22;;;17.60;46.80;;;;;;4970997;28;45612;-56
2022/03/27 07:37:25;;;;;;;6.30;4.68;;;17.60;46.80;;;;;;4970244;28;45312;-56
2022/03/27 07:39:51;;;;;;;7.13;4.60;;;17.60;46.90;;;;;;4970810;28;45324;-56
2022/03/27 07:42:16;;;;;;;5.35;4.55;;;17.60;46.90;;;;;;4970645;28;45976;-57
2022/03/27 07:44:42;;;;;;;4.85;4.35;;;17.60;46.90;;;;;;4972163;28;45273;-56
2022/03/27 07:47:07;;;;;;;6.20;4.43;;;17.60;46.90;;;;;;4971347;28;45375;-57
2022/03/27 07:49:33;;;;;;;6.25;4.47;;;17.60;46.90;;;;;;4970714;28;46368;-57
2022/03/27 07:52:05;;;;;;;7.72;4.38;;;17.60;46.90;;;;;;4969721;28;46163;-58
2022/03/27 07:54:31;;;;;;;5.88;4.20;;;17.70;47.00;;;;;;4971422;28;45269;-56
2022/03/27 07:56:56;;;;;;;6.72;4.53;;;17.60;46.90;;;;;;4972266;28;45291;-54
2022/03/27 07:59:22;;;;;;;6.55;4.20;;;17.60;46.90;;;;;;4971275;28;45431;-54
2022/03/27 08:01:48;;;;;;;5.93;4.32;;;17.70;46.90;;;;;;4970580;28;46164;-56
2022/03/27 08:04:14;;;;;;;6.10;3.92;;;17.70;46.90;;;;;;4971713;28;44728;-54
2022/03/27 08:06:40;;;;;;;5.95;4.00;;;17.70;46.90;;;;;;4970158;28;46121;-56
2022/03/27 08:09:06;;;;;;;6.85;4.28;;;17.70;46.90;;;;;;4967911;28;45231;-55
2022/03/27 08:11:32;;;;;;;5.45;4.32;;;17.70;46.90;;;;;;4967777;28;46487;-57
2022/03/27 08:13:57;;;;;;;5.32;4.03;;;17.70;46.90;;;;;;4961532;28;46219;-54
2022/03/27 08:16:23;;;;;;;6.55;4.13;;;17.70;46.90;;;;;;4970513;28;45395;-54
2022/03/27 08:18:49;;;;;;;4.97;4.22;;;17.70;46.90;;;;;;4970473;28;45297;-53
2022/03/27 08:21:14;;;;;;;5.32;4.10;;;17.80;47.00;;;;;;4971843;28;46380;-55
2022/03/27 08:23:40;;;;;;;5.07;3.97;;;17.80;46.90;;;;;;4970662;28;45084;-54
2022/03/27 08:28:50;;;;;;;4.63;4.03;;;17.80;46.90;;;;;;4968623;28;45361;-53
2022/03/27 08:31:15;;;;;;;6.25;4.68;;;17.80;46.90;;;;;;4967378;28;45274;-54
2022/03/27 08:33:41;;;;;;;5.78;3.97;;;17.80;46.90;;;;;;4970085;28;45278;-55
2022/03/27 08:36:07;;;;;;;5.10;4.10;;;17.80;46.80;;;;;;4971302;28;44668;-54
2022/03/27 08:38:32;;;;;;;5.75;4.50;;;17.80;46.80;;;;;;4970933;28;45377;-53
2022/03/27 08:41:01;;;;;;;6.22;4.07;;;17.90;46.80;;;;;;4970786;28;46236;-51
2022/03/27 08:43:26;;;;;;;6.05;4.05;;;17.80;46.80;;;;;;4969868;28;45505;-52
2022/03/27 08:45:52;;;;;;;5.85;4.40;;;17.90;46.90;;;;;;4955364;28;45251;-54
2022/03/27 08:48:17;;;;;;;6.03;4.38;;;17.90;46.80;;;;;;4973322;28;45301;-56
2022/03/27 08:51:02;;;;;;;5.65;4.18;;;17.90;46.80;;;;;;4952950;28;45991;-58
2022/03/27 08:53:38;;;;;;;5.70;4.10;;;17.90;46.80;;;;;;4968506;28;45723;-56
2022/03/27 08:56:07;;;;;;;5.95;4.20;;;17.90;46.80;;;;;;4955127;28;45786;-53
2022/03/27 08:58:40;;;;;;;6.00;4.07;;;17.90;46.70;;;;;;4969357;28;45548;-55
2022/03/27 09:01:06;;;;;;;5.63;3.90;;;18.00;46.80;;;;;;4966383;28;46166;-57
2022/03/27 09:03:32;;;;;;;6.95;4.25;;;18.00;46.80;;;;;;4964938;28;45296;-53
2022/03/27 09:06:00;;;;;;;4.45;3.70;;;18.00;46.80;;;;;;4963789;28;45746;-55
2022/03/27 09:08:25;;;;;;;5.05;4.05;;;18.00;46.80;;;;;;4970381;28;45181;-58
2022/03/27 09:10:51;;;;;;;6.80;4.22;;;18.00;46.80;;;;;;4967470;28;45861;-58
2022/03/27 09:13:18;;;;;;;5.18;3.90;;;18.00;46.70;;;;;;4970214;28;44780;-51
2022/03/27 09:15:44;;;;;;;4.75;4.07;;;18.00;46.70;;;;;;4967086;28;45478;-59
2022/03/27 09:18:10;;;;;;;8.27;4.30;;;18.00;46.70;;;;;;4973166;28;45336;-57
2022/03/27 09:20:48;;;;;;;4.80;4.07;;;18.00;46.70;;;;;;4968678;28;46183;-55
2022/03/27 09:23:21;;;;;;;6.25;4.03;;;18.10;46.80;;;;;;4972466;28;45041;-55
2022/03/27 09:25:46;;;;;;;5.35;4.22;;;18.10;46.70;;;;;;4971933;28;45135;-56
2022/03/27 09:28:14;;;;;;;5.25;4.13;;;18.10;47.00;;;;;;4971969;28;44736;-56
2022/03/27 09:30:39;;;;;;;4.82;4.03;;;18.10;46.70;;;;;;4970101;28;45088;-52
2022/03/27 09:33:05;;;;;;;4.72;4.10;;;18.10;46.70;;;;;;4974440;28;45352;-56
2022/03/27 09:35:33;;;;;;;6.07;4.43;;;18.10;46.70;;;;;;4976789;28;45408;-55
2022/03/27 09:37:58;;;;;;;5.28;3.85;;;18.10;46.70;;;;;;4972871;28;45227;-55
2022/03/27 09:40:24;;;;;;;6.13;3.83;;;18.10;46.70;;;;;;4976560;28;46238;-55
2022/03/27 09:43:08;;;;;;;4.82;3.80;;;18.20;46.70;;;;;;4958052;28;45152;-53
2022/03/27 09:45:34;;;;;;;4.85;3.90;;;18.20;46.70;;;;;;4977674;28;45355;-55
2022/03/27 09:48:07;;;;;;;5.50;4.22;;;18.20;46.70;;;;;;4973155;28;45466;-55
2022/03/27 09:50:37;;;;;;;5.15;3.65;;;18.20;46.70;;;;;;4973323;28;46080;-53
2022/03/27 09:53:25;;;;;;;5.32;4.13;;;18.20;46.70;;;;;;4969635;28;44730;-57
2022/03/27 09:56:09;;;;;;;5.43;4.20;;;18.30;46.70;;;;;;4973529;28;45298;-59
2022/03/27 09:58:38;;;;;;;6.25;4.18;;;18.20;46.70;;;;;;4970495;28;45503;-55
2022/03/27 10:01:24;;;;;;;5.28;4.05;;;18.30;46.70;;;;;;4974350;28;46384;-56
2022/03/27 10:04:03;;;;;;;4.95;3.88;;;18.20;46.70;;;;;;4971929;28;45172;-55
2022/03/27 10:06:37;;;;;;;5.38;3.75;;;18.20;46.70;;;;;;4988502;28;45308;-54
2022/03/27 10:09:07;;;;;;;5.55;3.22;;;18.30;46.70;;;;;;4974920;28;44741;-55
2022/03/27 10:11:34;;;;;;;5.47;3.78;;;18.20;46.70;;;;;;4973762;28;46362;-60
2022/03/27 10:14:00;;;;;;;5.88;3.70;;;18.30;46.70;;;;;;4956838;28;44790;-57
2022/03/27 10:16:30;;;;;;;6.10;3.70;;;18.30;46.70;;;;;;4968491;28;45243;-53
2022/03/27 10:19:03;;;;;;;4.90;3.83;;;18.30;46.70;;;;;;4974294;28;45357;-53
2022/03/27 10:21:28;;;;;;;5.18;3.97;;;18.30;46.70;;;;;;4972744;28;46258;-55
2022/03/27 10:24:14;;;;;;;7.10;4.38;;;18.40;46.70;;;;;;4974774;28;45474;-58
2022/03/27 10:26:45;;;;;;;6.35;4.72;;;18.40;46.70;;;;;;4972910;28;45146;-55
2022/03/27 10:29:12;;;;;;;6.70;4.15;;;18.40;46.60;;;;;;4974149;28;45700;-57
2022/03/27 10:31:41;;;;;;;9.02;3.90;;;18.50;46.70;;;;;;4974581;28;45957;-56
2022/03/27 10:34:08;;;;;;;5.10;3.85;;;18.50;46.50;;;;;;4970312;28;45631;-58
2022/03/27 10:36:42;;;;;;;4.88;3.38;;;18.60;46.40;;;;;;4972916;28;45364;-59
2022/03/27 10:39:29;;;;;;;8.38;4.20;;;18.70;46.40;;;;;;4975923;28;45563;-55
2022/03/27 10:42:20;;;;;;;4.47;3.20;;;18.70;46.20;;;;;;4961861;28;45336;-55
2022/03/27 10:44:56;;;;;;;4.68;3.47;;;18.80;46.20;;;;;;4975685;28;45210;-54
2022/03/27 10:47:25;;;;;;;4.22;3.80;;;18.80;46.30;;;;;;4966908;28;45209;-55
2022/03/27 10:50:00;;;;;;;6.88;4.00;;;18.80;46.20;;;;;;4965125;28;45441;-57
2022/03/27 10:52:46;;;;;;;6.43;4.38;;;18.80;46.10;;;;;;4970036;28;45402;-54
2022/03/27 10:55:16;;;;;;;5.90;3.97;;;18.80;46.00;;;;;;4963517;28;45642;-56
2022/03/27 10:57:45;;;;;;;4.45;3.60;;;18.80;46.00;;;;;;4981096;28;45716;-58
2022/03/27 11:00:12;;;;;;;4.50;3.60;;;18.90;46.10;;;;;;4062522;28;10000480;-56
2022/03/27 11:02:51;;;;;;;4.68;3.88;;;18.90;46.00;;;;;;4928986;28;45307;-58
2022/03/27 11:05:35;;;;;;;6.15;3.80;;;19.00;45.80;;;;;;4929294;28;45058;-57
2022/03/27 11:08:18;;;;;;;6.35;3.72;;;19.00;45.80;;;;;;4927972;28;45274;-58
2022/03/27 11:10:49;;;;;;;;;;;19.00;45.80;;;;;;4942799;28;45211;-55
2022/03/27 11:13:28;;;;;;;3.63;2.83;;;19.00;45.80;;;;;;4923027;28;45266;-55
2022/03/27 11:16:20;;;;;;;5.78;3.75;;;19.00;45.80;;;;;;4927946;28;46636;-56
2022/03/27 11:18:47;;;;;;;6.82;3.45;;;19.00;45.80;;;;;;4922475;28;45871;-56
2022/03/27 11:21:13;;;;;;;7.68;3.50;;;19.00;45.80;;;;;;4926692;28;45258;-55
2022/03/27 11:23:40;;;;;;;8.68;3.58;;;19.00;46.40;;;;;;4928180;28;45691;-54
2022/03/27 11:26:27;;;;;;;4.55;3.28;;;19.10;45.80;;;;;;4926443;28;45457;-58
2022/03/27 11:29:20;;;;;;;4.25;2.75;;;19.10;45.80;;;;;;4918480;28;45530;-60
2022/03/27 11:31:47;;;;;;;4.90;3.20;;;19.10;45.80;;;;;;4926864;28;45617;-54
2022/03/27 11:34:17;;;;;;;3.97;3.08;;;19.00;45.90;;;;;;4934720;28;45412;-53
2022/03/27 11:37:06;;;;;;;5.18;3.03;;;19.00;45.80;;;;;;4928778;28;45297;-53
2022/03/27 11:39:34;;;;;;;5.72;3.45;;;19.10;45.90;;;;;;4927653;28;46021;-55
2022/03/27 11:42:21;;;;;;;5.00;3.10;;;19.00;45.90;;;;;;4920955;28;45809;-57
2022/03/27 11:47:40;;;;;;;2.80;2.30;;;19.00;46.10;;;;;;4913109;28;45865;-58
2022/03/27 11:50:06;;;;;;;2.78;2.35;;;19.00;46.10;;;;;;4938033;28;46296;-58
2022/03/27 11:52:31;;;;;;;4.82;3.40;;;19.00;46.10;;;;;;4942586;28;45334;-57
2022/03/27 11:55:05;;;;;;;3.38;2.90;;;19.00;46.10;;;;;;4927485;28;45732;-58
2022/03/27 11:57:41;;;;;;;5.20;3.13;;;19.00;46.10;;;;;;4929234;28;45810;-58
2022/03/27 12:00:07;;;;;;;5.25;2.92;;;19.00;46.10;;;;;;4926966;28;47023;-56
2022/03/27 12:02:40;;;;;;;5.25;2.65;;;19.00;46.70;;;;;;4923113;28;44984;-59
2022/03/27 12:05:06;;;;;;;4.67;3.20;;;19.00;46.10;;;;;;4926196;28;45561;-58
2022/03/27 12:07:48;;;;;;;3.47;2.85;;;19.10;46.10;;;;;;4947655;28;45601;-55
2022/03/27 12:10:14;;;;;;;6.13;2.90;;;19.00;46.00;;;;;;4914023;28;46801;-58
2022/03/27 12:12:55;;;;;;;3.80;2.65;;;19.10;46.10;;;;;;4934094;28;45238;-59
2022/03/27 12:15:21;;;;;;;4.43;2.83;;;19.10;46.10;;;;;;4931387;28;45049;-56
2022/03/27 12:17:46;;;;;;;3.83;2.85;;;19.10;46.10;;;;;;4931098;28;45264;-57
2022/03/27 12:20:12;;;;;;;3.88;3.03;;;19.10;46.10;;;;;;4932769;28;46220;-56
2022/03/27 12:22:45;;;;;;;3.95;3.15;;;19.10;46.00;;;;;;4947768;28;45109;-56
2022/03/27 12:25:21;;;;;;;3.45;2.60;;;19.10;46.00;;;;;;4924369;28;45419;-56
2022/03/27 12:30:48;;;;;;;4.95;3.17;;;19.10;46.00;;;;;;4929014;28;45988;-54
2022/03/27 12:33:14;;;;;;;3.25;2.95;;;19.10;46.00;;;;;;4939821;28;44817;-59
2022/03/27 12:35:39;;;;;;;3.80;2.90;;;19.10;46.00;;;;;;4947193;28;45301;-56
2022/03/27 12:38:05;;;;;;;4.05;3.22;;;19.10;46.10;;;;;;4932222;28;45438;-56
2022/03/27 12:40:41;;;;;;;3.72;3.20;;;19.10;46.10;;;;;;4929749;28;46898;-57
2022/03/27 12:43:11;;;;;;;3.88;3.08;;;19.20;46.10;;;;;;4932829;28;45647;-57
2022/03/27 12:45:40;;;;;;;5.10;2.67;;;19.20;46.10;;;;;;4934088;28;45451;-56
2022/03/27 12:48:11;;;;;;;4.88;2.80;;;19.20;46.10;;;;;;4928266;28;44986;-57
2022/03/27 12:50:40;;;;;;;4.63;3.10;;;19.20;46.10;;;;;;4931233;28;45618;-56
2022/03/27 12:53:07;;;;;;;3.97;2.88;;;19.20;46.10;;;;;;4934130;28;45281;-55
2022/03/27 12:55:46;;;;;;;5.03;3.50;;;19.20;46.10;;;;;;4937058;28;44962;-58
2022/03/27 12:58:13;;;;;;;5.93;3.28;;;19.20;46.10;;;;;;4936591;28;45305;-56
2022/03/27 13:00:40;;;;;;;4.75;3.05;;;19.20;46.10;;;;;;4936722;28;46276;-54
2022/03/27 13:03:14;;;;;;;4.20;2.75;;;19.20;46.00;;;;;;4938151;28;45499;-55
2022/03/27 13:05:41;;;;;;;5.82;3.33;;;19.20;46.00;;;;;;4935734;28;45391;-57
2022/03/27 13:08:08;;;;;;;4.38;3.13;;;19.20;46.00;;;;;;4932592;28;47030;-58
2022/03/27 13:10:34;;;;;;;3.17;2.88;;;19.20;46.10;;;;;;4936173;28;46262;-55
2022/03/27 13:13:08;;;;;;;5.05;3.28;;;19.20;46.00;;;;;;4938441;28;44644;-56
2022/03/27 13:15:48;;;;;;;3.88;2.83;;;19.30;46.10;;;;;;4933234;28;45414;-59
2022/03/27 13:18:17;;;;;;;3.55;2.45;;;19.20;46.00;;;;;;4936340;28;45578;-57
2022/03/27 13:20:43;;;;;;;3.25;2.95;;;19.30;46.10;;;;;;4936474;28;46309;-58
2022/03/27 13:23:09;;;;;;;3.60;2.80;;;19.30;46.10;;;;;;4913537;28;44733;-56
2022/03/27 13:25:35;;;;;;;4.85;3.40;;;19.30;46.10;;;;;;4933674;28;45249;-55
2022/03/27 13:28:01;;;;;;;4.70;3.30;;;19.20;46.00;;;;;;4948134;28;45500;-57
2022/03/27 13:30:27;;;;;;;4.40;2.90;;;19.30;46.10;;;;;;4936411;28;46406;-56
2022/03/27 13:32:55;;;;;;;3.22;2.65;;;19.30;46.10;;;;;;4934824;28;45132;-59
2022/03/27 13:35:20;;;;;;;3.92;3.22;;;19.30;46.50;;;;;;4935022;28;45472;-58
2022/03/27 13:37:47;;;;;;;4.22;3.30;;;19.30;46.10;;;;;;4935768;28;44790;-54
2022/03/27 13:40:13;;;;;;;3.83;2.85;;;19.30;46.10;;;;;;4933441;28;45243;-57
2022/03/27 13:45:24;;;;;;;5.68;3.47;;;19.30;46.10;;;;;;4935478;28;45299;-58
2022/03/27 13:47:49;;;;;;;4.03;3.22;;;19.30;46.10;;;;;;4934042;28;45328;-57
2022/03/27 13:50:15;;;;;;;4.18;2.83;;;19.30;46.10;;;;;;4933958;28;46181;-59
2022/03/27 13:52:40;;;;;;;3.60;3.10;;;19.30;46.60;;;;;;4936371;28;45251;-57
2022/03/27 13:55:06;;;;;;;3.75;3.25;;;19.30;46.10;;;;;;4937521;28;45366;-57
2022/03/27 13:57:32;;;;;;;4.38;3.00;;;19.30;46.10;;;;;;4931667;28;45664;-59
2022/03/27 13:59:58;;;;;;;5.85;3.65;;;19.30;46.00;;;;;;4935061;28;45274;-58
2022/03/27 14:02:23;;;;;;;3.83;3.22;;;19.40;46.00;;;;;;4931239;28;45887;-60
2022/03/27 14:04:51;;;;;;;5.60;3.15;;;19.40;46.00;;;;;;4935912;28;45307;-57
2022/03/27 14:07:17;;;;;;;4.32;3.17;;;19.30;46.50;;;;;;4949751;28;45101;-56
2022/03/27 14:09:43;;;;;;;3.95;3.08;;;19.40;46.00;;;;;;4935832;28;46510;-59
2022/03/27 14:12:10;;;;;;;4.40;3.30;;;19.40;46.00;;;;;;4937924;28;45673;-57
2022/03/27 14:14:36;;;;;;;3.95;3.33;;;19.40;45.90;;;;;;4930709;28;45448;-59
2022/03/27 14:17:02;;;;;;;3.70;2.83;;;19.40;45.90;;;;;;4937804;28;45625;-58
2022/03/27 14:19:28;;;;;;;3.63;2.80;;;19.40;45.90;;;;;;4953651;28;45864;-53
2022/03/27 14:21:55;;;;;;;3.03;2.40;;;19.40;45.90;;;;;;4938772;28;45502;-57
2022/03/27 14:24:21;;;;;;;3.15;2.85;;;19.40;45.90;;;;;;4938990;28;45573;-56
2022/03/27 14:26:47;;;;;;;3.55;2.75;;;19.40;45.90;;;;;;4938522;28;45531;-58
2022/03/27 14:29:13;;;;;;;5.32;3.00;;;19.40;45.90;;;;;;4918208;28;46279;-57
2022/03/27 14:31:39;;;;;;;3.75;3.15;;;19.40;45.90;;;;;;4936543;28;45685;-54
2022/03/27 14:34:05;;;;;;;3.95;3.28;;;19.40;45.90;;;;;;4936505;28;44975;-57
2022/03/27 14:36:31;;;;;;;3.78;3.35;;;19.40;45.90;;;;;;4937360;28;45992;-54
2022/03/27 14:38:56;;;;;;;4.68;3.53;;;19.40;45.90;;;;;;4935547;28;46261;-57
2022/03/27 14:41:22;;;;;;;4.25;3.30;;;19.50;46.00;;;;;;4950227;28;45002;-57
2022/03/27 14:43:48;;;;;;;3.15;2.85;;;19.40;45.90;;;;;;4939776;28;45326;-55
2022/03/27 14:46:14;;;;;;;4.13;3.20;;;19.40;45.90;;;;;;4939189;28;44854;-56
2022/03/27 14:48:40;;;;;;;3.42;2.92;;;19.50;46.00;;;;;;4939535;28;46997;-55
2022/03/27 14:51:05;;;;;;;3.38;2.97;;;19.50;46.00;;;;;;4936958;28;45241;-55
2022/03/27 14:55:57;;;;;;;3.70;2.90;;;19.50;45.90;;;;;;4939215;28;44663;-56
2022/03/27 14:56:17;;;;;;;4.00;2.80;;;19.50;45.90;;;;;;4938548;28;44675;-56
2022/03/27 14:58:42;;;;;;;3.38;2.97;;;19.50;45.90;;;;;;4941846;28;45995;-54
2022/03/27 15:01:08;;;;;;;4.43;3.10;;;19.50;45.90;;;;;;4940328;28;45278;-58
2022/03/27 15:03:37;;;;;;;6.38;3.10;;;19.50;45.90;;;;;;4936331;28;45826;-57
2022/03/27 15:06:03;;;;;;;4.05;3.08;;;19.40;45.80;;;;;;4939212;28;45073;-58
2022/03/27 15:08:28;;;;;;;4.03;3.30;;;19.50;45.90;;;;;;4925862;28;46318;-57
2022/03/27 15:10:56;;;;;;;4.13;3.20;;;19.50;45.90;;;;;;4934427;28;45538;-57
2022/03/27 15:13:26;;;;;;;3.58;2.90;;;19.50;45.90;;;;;;4933285;28;45744;-57
2022/03/27 15:15:52;;;;;;;4.35;3.40;;;19.50;45.90;;;;;;4934047;28;45331;-55
2022/03/27 15:18:17;;;;;;;5.60;2.97;;;19.50;45.90;;;;;;4950136;28;45986;-55
2022/03/27 15:20:43;;;;;;;4.70;3.03;;;19.50;45.90;;;;;;4930081;28;44898;-58
2022/03/27 15:23:09;;;;;;;5.82;3.00;;;19.50;45.90;;;;;;4932913;28;45610;-56
2022/03/27 15:25:34;;;;;;;4.55;2.83;;;19.50;46.50;;;;;;4935911;28;45408;-57
2022/03/27 15:28:00;;;;;;;6.28;3.13;;;19.60;45.90;;;;;;4935534;28;46098;-57
2022/03/27 15:30:26;;;;;;;4.22;3.20;;;19.60;45.80;;;;;;4935409;28;44725;-59
2022/03/27 15:32:52;;;;;;;4.70;2.85;;;19.60;45.80;;;;;;4934539;28;45536;-56
2022/03/27 15:35:18;;;;;;;5.68;3.00;;;19.60;45.90;;;;;;4936748;28;45432;-58
2022/03/27 15:37:43;;;;;;;4.85;3.00;;;19.60;45.90;;;;;;4934314;28;46266;-56
2022/03/27 15:40:09;;;;;;;6.18;3.10;;;19.60;45.90;;;;;;4918185;28;45447;-56
2022/03/27 15:42:36;;;;;;;3.92;3.40;;;19.60;45.90;;;;;;4934619;28;45748;-58
2022/03/27 15:45:03;;;;;;;5.22;3.40;;;19.60;46.00;;;;;;4936746;28;45329;-57
2022/03/27 15:47:28;;;;;;;4.45;3.03;;;19.60;46.00;;;;;;4930622;28;46220;-57
2022/03/27 15:49:54;;;;;;;4.28;3.38;;;19.50;46.00;;;;;;4936361;28;45011;-56
2022/03/27 15:52:20;;;;;;;4.15;3.05;;;19.60;46.10;;;;;;4930471;28;45026;-59
2022/03/27 15:54:45;;;;;;;4.63;3.40;;;19.50;46.00;;;;;;4925267;28;45655;-57
2022/03/27 15:57:12;;;;;;;3.78;3.22;;;19.50;46.00;;;;;;4944841;28;45305;-58
2022/03/27 15:59:37;;;;;;;4.97;3.28;;;19.60;46.10;;;;;;4927888;28;45664;-56
2022/03/27 16:02:03;;;;;;;3.58;2.80;;;19.50;46.10;;;;;;4926104;28;45705;-58
2022/03/27 16:04:29;;;;;;;5.07;3.00;;;19.50;46.10;;;;;;4929211;28;45172;-57
2022/03/27 16:06:55;;;;;;;3.25;2.78;;;19.50;46.10;;;;;;4930143;28;46102;-55